Terminal Aerodrome Forecast
Issued by NWS Jackson, MS

Home | Current Version | Previous Version | Text Only | Print | Product List | Glossary On
Versions: 1 2 3 4 5 6 7 8 9 10 11 12
929
FTUS44 KJAN 090520
TAFHBG
TAF
KHBG 090520Z 0906/1006 28004KT P6SM SKC
     FM091500 30015G22KT P6SM SCT050
     FM092000 29019G26KT P6SM BKN050
     FM100000 28006KT P6SM SKC=

USA.gov is the U.S. government's official web portal to all federal, state and local government web resources and services.